Portada
METAR-TAF:

METAR-TAF

Aeropuertos :

Fairmont Municipal Airport

Fairmont, Minnesota, Estados Unidos

latitud: 43-39N, longitud: 094-25W, altitud: 354 m

Observación

El informe se hizo hace 15 minutos, a las 01:56 UTC
Viento 14 kt del noroeste con ráfagas de 19 kt
Temperatura 20°C
Humedad 40%
Presión 1016 hPa
Visibilidad: 16.1 km
Cielo despejado

METAR: KFRM 290156Z AUTO 32014G19KT 10SM CLR 20/06 A3001 RMK AO2 SLP162 T02000056

Hora: 21:11 (02:11 UTC)


TAF: falta

Observaciones y pronósticos meteorológicos de más de 4000 aeropuertos (mensajes METAR y TAF).

Los puntos amarillos y rojos representan las estaciones disponibles.

Ponga el ratón en el punto deseado para ver el nombre de la estación.

Haga clic para ver las observaciones y los pronósticos meteorológicos.

Para cambiar el mapa : haga clic en los botones verdes con una cruz de color negro para hacer un zoom, en el botón verde con un guión para alejar o en las flechas verdes para mapas adyacentes.


METAR-TAF: